sensor_id;sensor_type;location;lat;lon;timestamp;temperature;humidity
28969;DHT22;16076;51.194;6.642;2022-08-11T00:02:40;20.60;88.60
28969;DHT22;16076;51.194;6.642;2022-08-11T00:05:10;20.50;89.40
28969;DHT22;16076;51.194;6.642;2022-08-11T00:10:12;20.40;90.60
28969;DHT22;16076;51.194;6.642;2022-08-11T00:12:41;20.40;91.00
28969;DHT22;16076;51.194;6.642;2022-08-11T00:15:08;20.30;91.60
28969;DHT22;16076;51.194;6.642;2022-08-11T00:17:35;20.20;92.20
28969;DHT22;16076;51.194;6.642;2022-08-11T00:20:13;20.20;92.70
28969;DHT22;16076;51.194;6.642;2022-08-11T00:22:41;20.00;93.40
28969;DHT22;16076;51.194;6.642;2022-08-11T00:25:17;20.00;93.80
28969;DHT22;16076;51.194;6.642;2022-08-11T00:27:45;19.90;94.30
28969;DHT22;16076;51.194;6.642;2022-08-11T00:30:16;19.80;95.00
28969;DHT22;16076;51.194;6.642;2022-08-11T00:32:45;19.80;95.50
28969;DHT22;16076;51.194;6.642;2022-08-11T00:35:17;19.70;95.90
28969;DHT22;16076;51.194;6.642;2022-08-11T00:37:51;19.70;96.50
28969;DHT22;16076;51.194;6.642;2022-08-11T00:40:27;19.70;97.10
28969;DHT22;16076;51.194;6.642;2022-08-11T00:45:31;19.60;98.00
28969;DHT22;16076;51.194;6.642;2022-08-11T00:48:04;19.50;98.20
28969;DHT22;16076;51.194;6.642;2022-08-11T00:51:00;19.50;98.50
28969;DHT22;16076;51.194;6.642;2022-08-11T01:00:05;19.40;99.30
28969;DHT22;16076;51.194;6.642;2022-08-11T01:11:06;19.30;99.90
28969;DHT22;16076;51.194;6.642;2022-08-11T01:14:37;19.20;99.90
28969;DHT22;16076;51.194;6.642;2022-08-11T01:17:31;19.10;99.90
28969;DHT22;16076;51.194;6.642;2022-08-11T01:40:54;18.70;99.90
28969;DHT22;16076;51.194;6.642;2022-08-11T01:47:13;18.60;99.90
28969;DHT22;16076;51.194;6.642;2022-08-11T01:55:57;18.50;99.90
28969;DHT22;16076;51.194;6.642;2022-08-11T01:58:35;18.60;99.90
28969;DHT22;16076;51.194;6.642;2022-08-11T02:03:51;18.50;99.90
28969;DHT22;16076;51.194;6.642;2022-08-11T02:09:24;18.40;99.90
28969;DHT22;16076;51.194;6.642;2022-08-11T02:11:57;18.20;99.90
28969;DHT22;16076;51.194;6.642;2022-08-11T02:17:20;18.10;99.90
28969;DHT22;16076;51.194;6.642;2022-08-11T02:19:54;18.10;99.90
28969;DHT22;16076;51.194;6.642;2022-08-11T02:26:30;17.90;99.90
28969;DHT22;16076;51.194;6.642;2022-08-11T02:29:18;17.80;99.90
28969;DHT22;16076;51.194;6.642;2022-08-11T02:32:24;17.80;99.90
28969;DHT22;16076;51.194;6.642;2022-08-11T02:38:23;17.70;99.90
28969;DHT22;16076;51.194;6.642;2022-08-11T02:41:08;17.70;99.90
28969;DHT22;16076;51.194;6.642;2022-08-11T02:44:35;17.70;99.90
28969;DHT22;16076;51.194;6.642;2022-08-11T02:47:10;17.70;99.90
28969;DHT22;16076;51.194;6.642;2022-08-11T02:53:19;17.70;99.90
28969;DHT22;16076;51.194;6.642;2022-08-11T02:59:25;17.70;99.90
28969;DHT22;16076;51.194;6.642;2022-08-11T03:13:15;17.70;99.90
28969;DHT22;16076;51.194;6.642;2022-08-11T03:22:21;17.70;99.90
28969;DHT22;16076;51.194;6.642;2022-08-11T03:30:09;17.70;99.90
28969;DHT22;16076;51.194;6.642;2022-08-11T03:39:36;17.60;99.90
28969;DHT22;16076;51.194;6.642;2022-08-11T03:52:50;17.40;99.90
28969;DHT22;16076;51.194;6.642;2022-08-11T04:10:03;17.10;99.90
28969;DHT22;16076;51.194;6.642;2022-08-11T04:40:39;17.00;99.90
28969;DHT22;16076;51.194;6.642;2022-08-11T05:04:50;17.40;99.90
28969;DHT22;16076;51.194;6.642;2022-08-11T05:13:45;17.50;99.90
28969;DHT22;16076;51.194;6.642;2022-08-11T05:16:40;17.60;99.90
28969;DHT22;16076;51.194;6.642;2022-08-11T05:19:25;17.70;99.90
28969;DHT22;16076;51.194;6.642;2022-08-11T05:22:11;17.70;99.90
28969;DHT22;16076;51.194;6.642;2022-08-11T05:25:08;17.80;99.90
28969;DHT22;16076;51.194;6.642;2022-08-11T05:30:43;18.00;99.90
28969;DHT22;16076;51.194;6.642;2022-08-11T05:33:34;18.10;99.90
28969;DHT22;16076;51.194;6.642;2022-08-11T05:36:39;18.10;99.90
28969;DHT22;16076;51.194;6.642;2022-08-11T05:39:30;18.20;99.90
28969;DHT22;16076;51.194;6.642;2022-08-11T05:42:16;18.30;99.90
28969;DHT22;16076;51.194;6.642;2022-08-11T05:45:04;18.50;99.90
28969;DHT22;16076;51.194;6.642;2022-08-11T05:47:53;18.60;99.90
28969;DHT22;16076;51.194;6.642;2022-08-11T05:50:38;18.70;99.90
28969;DHT22;16076;51.194;6.642;2022-08-11T05:53:24;18.80;99.90
28969;DHT22;16076;51.194;6.642;2022-08-11T05:56:11;18.90;99.90
28969;DHT22;16076;51.194;6.642;2022-08-11T05:58:57;19.10;99.90
28969;DHT22;16076;51.194;6.642;2022-08-11T06:01:33;19.30;99.90
28969;DHT22;16076;51.194;6.642;2022-08-11T06:04:05;19.50;99.90
28969;DHT22;16076;51.194;6.642;2022-08-11T06:07:05;19.60;99.90
28969;DHT22;16076;51.194;6.642;2022-08-11T06:09:37;19.80;99.90
28969;DHT22;16076;51.194;6.642;2022-08-11T06:12:29;20.00;99.90
28969;DHT22;16076;51.194;6.642;2022-08-11T06:15:07;20.20;99.90
28969;DHT22;16076;51.194;6.642;2022-08-11T06:17:44;20.40;99.90
28969;DHT22;16076;51.194;6.642;2022-08-11T06:20:15;20.60;99.90
28969;DHT22;16076;51.194;6.642;2022-08-11T06:22:44;20.80;99.90
28969;DHT22;16076;51.194;6.642;2022-08-11T06:25:14;21.00;99.90
28969;DHT22;16076;51.194;6.642;2022-08-11T06:27:44;21.20;99.90
28969;DHT22;16076;51.194;6.642;2022-08-11T06:30:10;21.40;99.90
28969;DHT22;16076;51.194;6.642;2022-08-11T06:32:45;21.60;99.90
28969;DHT22;16076;51.194;6.642;2022-08-11T06:45:36;22.50;95.20
28969;DHT22;16076;51.194;6.642;2022-08-11T06:48:05;22.70;93.50
28969;DHT22;16076;51.194;6.642;2022-08-11T06:50:44;22.90;93.60
28969;DHT22;16076;51.194;6.642;2022-08-11T06:53:31;23.10;92.60
28969;DHT22;16076;51.194;6.642;2022-08-11T06:56:00;23.30;92.40
28969;DHT22;16076;51.194;6.642;2022-08-11T06:58:48;23.40;91.10
28969;DHT22;16076;51.194;6.642;2022-08-11T07:01:52;23.60;89.90
28969;DHT22;16076;51.194;6.642;2022-08-11T07:04:39;23.70;88.60
28969;DHT22;16076;51.194;6.642;2022-08-11T07:10:32;24.00;87.80
28969;DHT22;16076;51.194;6.642;2022-08-11T07:13:22;24.10;86.00
28969;DHT22;16076;51.194;6.642;2022-08-11T07:16:07;24.20;85.70
28969;DHT22;16076;51.194;6.642;2022-08-11T07:18:36;24.30;84.60
28969;DHT22;16076;51.194;6.642;2022-08-11T07:21:23;24.40;85.10
28969;DHT22;16076;51.194;6.642;2022-08-11T07:24:16;24.60;85.50
28969;DHT22;16076;51.194;6.642;2022-08-11T07:27:07;24.70;84.50
28969;DHT22;16076;51.194;6.642;2022-08-11T07:29:55;24.70;83.70
28969;DHT22;16076;51.194;6.642;2022-08-11T07:32:28;24.80;83.00
28969;DHT22;16076;51.194;6.642;2022-08-11T07:35:02;25.00;82.10
28969;DHT22;16076;51.194;6.642;2022-08-11T07:37:32;25.10;82.10
28969;DHT22;16076;51.194;6.642;2022-08-11T07:39:59;25.20;81.10
28969;DHT22;16076;51.194;6.642;2022-08-11T07:42:30;25.30;80.50
28969;DHT22;16076;51.194;6.642;2022-08-11T07:44:59;25.30;80.70
28969;DHT22;16076;51.194;6.642;2022-08-11T07:47:46;25.50;79.50
28969;DHT22;16076;51.194;6.642;2022-08-11T07:50:31;25.60;79.90
28969;DHT22;16076;51.194;6.642;2022-08-11T07:53:16;25.80;78.30
28969;DHT22;16076;51.194;6.642;2022-08-11T07:55:43;25.80;77.70
28969;DHT22;16076;51.194;6.642;2022-08-11T07:58:17;25.90;78.20
28969;DHT22;16076;51.194;6.642;2022-08-11T08:01:04;26.00;77.40
28969;DHT22;16076;51.194;6.642;2022-08-11T08:03:49;26.10;77.20
28969;DHT22;16076;51.194;6.642;2022-08-11T08:06:35;26.20;77.70
28969;DHT22;16076;51.194;6.642;2022-08-11T08:09:21;26.20;77.20
28969;DHT22;16076;51.194;6.642;2022-08-11T08:12:07;26.20;76.20
28969;DHT22;16076;51.194;6.642;2022-08-11T08:14:55;26.30;75.90
28969;DHT22;16076;51.194;6.642;2022-08-11T08:17:43;26.40;74.30
28969;DHT22;16076;51.194;6.642;2022-08-11T08:20:43;26.50;74.40
28969;DHT22;16076;51.194;6.642;2022-08-11T08:23:10;26.70;74.20
28969;DHT22;16076;51.194;6.642;2022-08-11T08:25:39;26.90;74.60
28969;DHT22;16076;51.194;6.642;2022-08-11T08:28:10;27.00;73.80
28969;DHT22;16076;51.194;6.642;2022-08-11T08:30:41;27.20;74.30
28969;DHT22;16076;51.194;6.642;2022-08-11T08:33:29;27.20;74.00
28969;DHT22;16076;51.194;6.642;2022-08-11T08:36:00;27.30;74.90
28969;DHT22;16076;51.194;6.642;2022-08-11T08:41:08;27.40;72.40
28969;DHT22;16076;51.194;6.642;2022-08-11T08:43:35;27.50;70.70
28969;DHT22;16076;51.194;6.642;2022-08-11T08:46:04;27.50;71.00
28969;DHT22;16076;51.194;6.642;2022-08-11T08:48:35;27.60;70.60
28969;DHT22;16076;51.194;6.642;2022-08-11T08:51:04;27.60;69.80
28969;DHT22;16076;51.194;6.642;2022-08-11T08:53:52;27.60;68.60
28969;DHT22;16076;51.194;6.642;2022-08-11T08:56:26;27.70;67.70
28969;DHT22;16076;51.194;6.642;2022-08-11T08:59:00;27.70;68.60
28969;DHT22;16076;51.194;6.642;2022-08-11T09:01:29;27.70;68.10
28969;DHT22;16076;51.194;6.642;2022-08-11T09:03:55;27.80;67.70
28969;DHT22;16076;51.194;6.642;2022-08-11T09:06:21;27.80;67.50
28969;DHT22;16076;51.194;6.642;2022-08-11T09:08:50;27.90;66.70
28969;DHT22;16076;51.194;6.642;2022-08-11T09:11:16;28.00;67.00
28969;DHT22;16076;51.194;6.642;2022-08-11T09:14:02;28.10;64.60
28969;DHT22;16076;51.194;6.642;2022-08-11T09:16:28;28.20;65.40
28969;DHT22;16076;51.194;6.642;2022-08-11T09:18:54;28.30;64.40
28969;DHT22;16076;51.194;6.642;2022-08-11T09:21:20;28.40;63.90
28969;DHT22;16076;51.194;6.642;2022-08-11T09:23:48;28.40;63.40
28969;DHT22;16076;51.194;6.642;2022-08-11T09:26:34;28.50;63.10
28969;DHT22;16076;51.194;6.642;2022-08-11T09:29:21;28.70;61.70
28969;DHT22;16076;51.194;6.642;2022-08-11T09:31:47;28.80;61.50
28969;DHT22;16076;51.194;6.642;2022-08-11T09:34:14;29.00;61.40
28969;DHT22;16076;51.194;6.642;2022-08-11T09:36:42;28.90;60.50
28969;DHT22;16076;51.194;6.642;2022-08-11T09:39:29;28.90;60.90
28969;DHT22;16076;51.194;6.642;2022-08-11T09:42:16;29.10;61.40
28969;DHT22;16076;51.194;6.642;2022-08-11T09:44:45;29.20;60.80
28969;DHT22;16076;51.194;6.642;2022-08-11T09:49:47;29.50;59.40
28969;DHT22;16076;51.194;6.642;2022-08-11T09:52:16;29.60;59.00
28969;DHT22;16076;51.194;6.642;2022-08-11T09:54:43;29.60;57.20
28969;DHT22;16076;51.194;6.642;2022-08-11T09:57:12;29.70;57.70
28969;DHT22;16076;51.194;6.642;2022-08-11T09:59:56;29.70;57.70
28969;DHT22;16076;51.194;6.642;2022-08-11T10:02:27;29.80;57.00
28969;DHT22;16076;51.194;6.642;2022-08-11T10:04:56;30.00;57.20
28969;DHT22;16076;51.194;6.642;2022-08-11T10:07:45;30.00;55.40
28969;DHT22;16076;51.194;6.642;2022-08-11T10:10:16;30.10;55.30
28969;DHT22;16076;51.194;6.642;2022-08-11T10:12:55;30.20;54.90
28969;DHT22;16076;51.194;6.642;2022-08-11T10:15:23;30.20;54.20
28969;DHT22;16076;51.194;6.642;2022-08-11T10:18:07;30.30;54.70
28969;DHT22;16076;51.194;6.642;2022-08-11T10:20:58;30.40;54.00
28969;DHT22;16076;51.194;6.642;2022-08-11T10:23:26;30.60;55.20
28969;DHT22;16076;51.194;6.642;2022-08-11T10:26:11;30.50;54.30
28969;DHT22;16076;51.194;6.642;2022-08-11T10:28:57;30.50;53.90
28969;DHT22;16076;51.194;6.642;2022-08-11T10:31:24;30.50;53.40
28969;DHT22;16076;51.194;6.642;2022-08-11T10:34:10;30.60;53.40
28969;DHT22;16076;51.194;6.642;2022-08-11T10:36:39;30.70;52.80
28969;DHT22;16076;51.194;6.642;2022-08-11T10:39:10;30.80;52.80
28969;DHT22;16076;51.194;6.642;2022-08-11T10:41:43;30.90;51.70
28969;DHT22;16076;51.194;6.642;2022-08-11T10:44:29;31.00;51.40
28969;DHT22;16076;51.194;6.642;2022-08-11T10:46:59;31.00;51.80
28969;DHT22;16076;51.194;6.642;2022-08-11T10:49:45;31.00;50.30
28969;DHT22;16076;51.194;6.642;2022-08-11T10:52:31;31.10;52.30
28969;DHT22;16076;51.194;6.642;2022-08-11T10:55:16;31.10;50.00
28969;DHT22;16076;51.194;6.642;2022-08-11T10:58:01;31.20;48.80
28969;DHT22;16076;51.194;6.642;2022-08-11T11:00:46;31.30;50.00
28969;DHT22;16076;51.194;6.642;2022-08-11T11:03:12;31.30;49.20
28969;DHT22;16076;51.194;6.642;2022-08-11T11:05:39;31.30;49.70
28969;DHT22;16076;51.194;6.642;2022-08-11T11:08:12;31.30;49.40
28969;DHT22;16076;51.194;6.642;2022-08-11T11:10:58;31.30;48.20
28969;DHT22;16076;51.194;6.642;2022-08-11T11:13:25;31.20;49.20
28969;DHT22;16076;51.194;6.642;2022-08-11T11:16:30;31.20;49.60
28969;DHT22;16076;51.194;6.642;2022-08-11T11:19:16;31.30;49.90
28969;DHT22;16076;51.194;6.642;2022-08-11T11:21:47;31.40;48.50
28969;DHT22;16076;51.194;6.642;2022-08-11T11:24:35;31.50;47.90
28969;DHT22;16076;51.194;6.642;2022-08-11T11:30:02;31.50;49.30
28969;DHT22;16076;51.194;6.642;2022-08-11T11:35:29;31.80;49.60
28969;DHT22;16076;51.194;6.642;2022-08-11T11:37:57;31.90;49.10
28969;DHT22;16076;51.194;6.642;2022-08-11T11:40:27;32.00;48.70
28969;DHT22;16076;51.194;6.642;2022-08-11T11:42:55;32.10;47.80
28969;DHT22;16076;51.194;6.642;2022-08-11T11:45:23;32.10;48.60
28969;DHT22;16076;51.194;6.642;2022-08-11T11:47:54;32.20;47.90
28969;DHT22;16076;51.194;6.642;2022-08-11T11:50:28;32.20;46.70
28969;DHT22;16076;51.194;6.642;2022-08-11T11:52:56;32.20;46.40
28969;DHT22;16076;51.194;6.642;2022-08-11T11:55:23;32.20;47.00
28969;DHT22;16076;51.194;6.642;2022-08-11T11:57:53;32.30;46.60
28969;DHT22;16076;51.194;6.642;2022-08-11T12:00:43;32.30;47.60
28969;DHT22;16076;51.194;6.642;2022-08-11T12:03:27;32.30;47.70
28969;DHT22;16076;51.194;6.642;2022-08-11T12:05:55;32.40;46.70
28969;DHT22;16076;51.194;6.642;2022-08-11T12:08:21;32.40;47.60
28969;DHT22;16076;51.194;6.642;2022-08-11T12:10:51;32.40;46.10
28969;DHT22;16076;51.194;6.642;2022-08-11T12:13:43;32.50;48.10
28969;DHT22;16076;51.194;6.642;2022-08-11T12:16:13;32.70;46.90
28969;DHT22;16076;51.194;6.642;2022-08-11T12:18:41;32.70;47.00
28969;DHT22;16076;51.194;6.642;2022-08-11T12:21:09;32.70;46.80
28969;DHT22;16076;51.194;6.642;2022-08-11T12:23:37;32.70;46.60
28969;DHT22;16076;51.194;6.642;2022-08-11T12:26:23;32.70;44.70
28969;DHT22;16076;51.194;6.642;2022-08-11T12:29:10;32.80;45.50
28969;DHT22;16076;51.194;6.642;2022-08-11T12:31:37;32.90;46.50
28969;DHT22;16076;51.194;6.642;2022-08-11T12:34:05;33.00;45.90
28969;DHT22;16076;51.194;6.642;2022-08-11T12:36:40;33.10;44.60
28969;DHT22;16076;51.194;6.642;2022-08-11T12:39:09;33.00;43.60
28969;DHT22;16076;51.194;6.642;2022-08-11T12:41:38;33.00;43.90
28969;DHT22;16076;51.194;6.642;2022-08-11T12:44:26;33.00;43.50
28969;DHT22;16076;51.194;6.642;2022-08-11T12:47:12;33.10;44.80
28969;DHT22;16076;51.194;6.642;2022-08-11T12:49:46;33.20;44.60
28969;DHT22;16076;51.194;6.642;2022-08-11T12:52:35;33.30;44.20
28969;DHT22;16076;51.194;6.642;2022-08-11T12:55:11;33.40;44.00
28969;DHT22;16076;51.194;6.642;2022-08-11T12:57:46;33.60;43.50
28969;DHT22;16076;51.194;6.642;2022-08-11T13:00:34;33.70;43.20
28969;DHT22;16076;51.194;6.642;2022-08-11T13:03:19;33.90;42.40
28969;DHT22;16076;51.194;6.642;2022-08-11T13:06:07;34.00;42.70
28969;DHT22;16076;51.194;6.642;2022-08-11T13:08:36;34.00;42.60
28969;DHT22;16076;51.194;6.642;2022-08-11T13:11:02;34.10;43.10
28969;DHT22;16076;51.194;6.642;2022-08-11T13:13:48;34.60;42.60
28969;DHT22;16076;51.194;6.642;2022-08-11T13:16:17;36.20;40.50
28969;DHT22;16076;51.194;6.642;2022-08-11T13:18:45;38.00;39.10
28969;DHT22;16076;51.194;6.642;2022-08-11T13:21:12;39.80;37.40
28969;DHT22;16076;51.194;6.642;2022-08-11T13:23:39;40.90;36.70
28969;DHT22;16076;51.194;6.642;2022-08-11T13:26:08;41.80;34.10
28969;DHT22;16076;51.194;6.642;2022-08-11T13:28:37;42.90;33.00
28969;DHT22;16076;51.194;6.642;2022-08-11T13:31:07;43.60;30.50
28969;DHT22;16076;51.194;6.642;2022-08-11T13:33:47;44.10;30.00
28969;DHT22;16076;51.194;6.642;2022-08-11T13:36:20;44.30;29.80
28969;DHT22;16076;51.194;6.642;2022-08-11T13:38:47;44.20;29.60
28969;DHT22;16076;51.194;6.642;2022-08-11T13:41:14;44.50;28.80
28969;DHT22;16076;51.194;6.642;2022-08-11T13:43:59;44.40;28.00
28969;DHT22;16076;51.194;6.642;2022-08-11T13:46:26;44.40;28.80
28969;DHT22;16076;51.194;6.642;2022-08-11T13:48:56;44.40;28.70
28969;DHT22;16076;51.194;6.642;2022-08-11T13:51:26;45.00;27.90
28969;DHT22;16076;51.194;6.642;2022-08-11T13:56:29;45.30;27.90
28969;DHT22;16076;51.194;6.642;2022-08-11T13:58:56;45.50;26.90
28969;DHT22;16076;51.194;6.642;2022-08-11T14:01:27;45.60;26.80
28969;DHT22;16076;51.194;6.642;2022-08-11T14:04:20;46.10;27.70
28969;DHT22;16076;51.194;6.642;2022-08-11T14:06:49;46.60;27.00
28969;DHT22;16076;51.194;6.642;2022-08-11T14:09:24;47.20;26.50
28969;DHT22;16076;51.194;6.642;2022-08-11T14:11:54;47.70;26.00
28969;DHT22;16076;51.194;6.642;2022-08-11T14:14:40;48.20;25.70
28969;DHT22;16076;51.194;6.642;2022-08-11T14:17:07;48.80;25.80
28969;DHT22;16076;51.194;6.642;2022-08-11T14:19:41;49.20;25.20
28969;DHT22;16076;51.194;6.642;2022-08-11T14:22:10;49.60;24.80
28969;DHT22;16076;51.194;6.642;2022-08-11T14:24:39;49.60;23.70
28969;DHT22;16076;51.194;6.642;2022-08-11T14:27:07;49.20;23.90
28969;DHT22;16076;51.194;6.642;2022-08-11T14:29:34;49.20;23.80
28969;DHT22;16076;51.194;6.642;2022-08-11T14:32:05;49.10;23.80
28969;DHT22;16076;51.194;6.642;2022-08-11T14:34:36;48.80;24.20
28969;DHT22;16076;51.194;6.642;2022-08-11T14:37:06;48.10;24.30
28969;DHT22;16076;51.194;6.642;2022-08-11T14:39:51;47.80;24.40
28969;DHT22;16076;51.194;6.642;2022-08-11T14:42:22;47.20;24.90
28969;DHT22;16076;51.194;6.642;2022-08-11T14:48:14;44.30;25.50
28969;DHT22;16076;51.194;6.642;2022-08-11T14:50:40;42.40;26.40
28969;DHT22;16076;51.194;6.642;2022-08-11T14:53:10;41.10;26.70
28969;DHT22;16076;51.194;6.642;2022-08-11T14:55:39;40.00;27.70
28969;DHT22;16076;51.194;6.642;2022-08-11T14:58:29;40.00;28.30
28969;DHT22;16076;51.194;6.642;2022-08-11T15:01:00;41.10;28.20
28969;DHT22;16076;51.194;6.642;2022-08-11T15:03:46;42.20;27.20
28969;DHT22;16076;51.194;6.642;2022-08-11T15:06:12;43.20;27.10
28969;DHT22;16076;51.194;6.642;2022-08-11T15:08:38;43.90;27.00
28969;DHT22;16076;51.194;6.642;2022-08-11T15:11:28;44.10;26.60
28969;DHT22;16076;51.194;6.642;2022-08-11T15:14:15;44.30;26.80
28969;DHT22;16076;51.194;6.642;2022-08-11T15:17:05;44.40;26.80
28969;DHT22;16076;51.194;6.642;2022-08-11T15:19:36;44.10;26.70
28969;DHT22;16076;51.194;6.642;2022-08-11T15:22:23;43.90;26.70
28969;DHT22;16076;51.194;6.642;2022-08-11T15:25:08;42.70;26.60
28969;DHT22;16076;51.194;6.642;2022-08-11T15:27:34;41.30;27.30
28969;DHT22;16076;51.194;6.642;2022-08-11T15:30:21;40.10;28.20
28969;DHT22;16076;51.194;6.642;2022-08-11T15:33:08;38.70;29.20
28969;DHT22;16076;51.194;6.642;2022-08-11T15:35:53;37.40;30.20
28969;DHT22;16076;51.194;6.642;2022-08-11T15:38:43;36.80;31.30
28969;DHT22;16076;51.194;6.642;2022-08-11T15:41:14;36.00;32.20
28969;DHT22;16076;51.194;6.642;2022-08-11T15:44:00;35.60;32.70
28969;DHT22;16076;51.194;6.642;2022-08-11T15:46:50;35.30;33.30
28969;DHT22;16076;51.194;6.642;2022-08-11T15:49:28;35.20;33.40
28969;DHT22;16076;51.194;6.642;2022-08-11T15:52:01;34.80;33.80
28969;DHT22;16076;51.194;6.642;2022-08-11T15:54:29;34.60;34.30
28969;DHT22;16076;51.194;6.642;2022-08-11T15:57:00;34.40;34.50
28969;DHT22;16076;51.194;6.642;2022-08-11T15:59:29;34.40;34.60
28969;DHT22;16076;51.194;6.642;2022-08-11T16:02:17;34.20;34.70
28969;DHT22;16076;51.194;6.642;2022-08-11T16:05:07;33.80;35.30
28969;DHT22;16076;51.194;6.642;2022-08-11T16:07:34;33.80;36.00
28969;DHT22;16076;51.194;6.642;2022-08-11T16:10:07;33.70;35.30
28969;DHT22;16076;51.194;6.642;2022-08-11T16:12:59;33.60;35.90
28969;DHT22;16076;51.194;6.642;2022-08-11T16:15:31;33.40;36.10
28969;DHT22;16076;51.194;6.642;2022-08-11T16:18:20;33.30;36.00
28969;DHT22;16076;51.194;6.642;2022-08-11T16:20:50;33.10;36.00
28969;DHT22;16076;51.194;6.642;2022-08-11T16:23:21;33.00;36.10
28969;DHT22;16076;51.194;6.642;2022-08-11T16:25:52;33.00;36.40
28969;DHT22;16076;51.194;6.642;2022-08-11T16:28:20;32.90;36.30
28969;DHT22;16076;51.194;6.642;2022-08-11T16:30:50;32.80;36.50
28969;DHT22;16076;51.194;6.642;2022-08-11T16:33:17;32.70;36.60
28969;DHT22;16076;51.194;6.642;2022-08-11T16:35:45;32.70;36.60
28969;DHT22;16076;51.194;6.642;2022-08-11T16:38:31;32.60;36.70
28969;DHT22;16076;51.194;6.642;2022-08-11T16:41:21;32.50;37.60
28969;DHT22;16076;51.194;6.642;2022-08-11T16:44:14;32.50;36.80
28969;DHT22;16076;51.194;6.642;2022-08-11T16:47:00;32.40;36.70
28969;DHT22;16076;51.194;6.642;2022-08-11T16:49:31;32.40;37.30
28969;DHT22;16076;51.194;6.642;2022-08-11T16:52:03;32.40;36.70
28969;DHT22;16076;51.194;6.642;2022-08-11T16:54:32;32.20;37.00
28969;DHT22;16076;51.194;6.642;2022-08-11T16:57:06;32.20;36.90
28969;DHT22;16076;51.194;6.642;2022-08-11T16:59:53;32.10;37.30
28969;DHT22;16076;51.194;6.642;2022-08-11T17:02:24;32.10;36.90
28969;DHT22;16076;51.194;6.642;2022-08-11T17:05:16;32.00;36.80
28969;DHT22;16076;51.194;6.642;2022-08-11T17:08:02;31.90;37.10
28969;DHT22;16076;51.194;6.642;2022-08-11T17:10:59;31.80;37.40
28969;DHT22;16076;51.194;6.642;2022-08-11T17:14:06;31.70;37.60
28969;DHT22;16076;51.194;6.642;2022-08-11T17:16:38;31.70;38.60
28969;DHT22;16076;51.194;6.642;2022-08-11T17:19:16;31.60;38.00
28969;DHT22;16076;51.194;6.642;2022-08-11T17:21:47;31.60;37.80
28969;DHT22;16076;51.194;6.642;2022-08-11T17:24:40;31.50;37.70
28969;DHT22;16076;51.194;6.642;2022-08-11T17:27:12;31.40;37.90
28969;DHT22;16076;51.194;6.642;2022-08-11T17:29:55;31.30;38.00
28969;DHT22;16076;51.194;6.642;2022-08-11T17:32:29;31.20;38.30
28969;DHT22;16076;51.194;6.642;2022-08-11T17:35:18;31.20;38.40
28969;DHT22;16076;51.194;6.642;2022-08-11T17:38:06;31.20;38.30
28969;DHT22;16076;51.194;6.642;2022-08-11T17:40:35;31.00;38.40
28969;DHT22;16076;51.194;6.642;2022-08-11T17:43:05;31.00;38.30
28969;DHT22;16076;51.194;6.642;2022-08-11T17:45:50;31.00;38.60
28969;DHT22;16076;51.194;6.642;2022-08-11T17:48:40;31.00;38.70
28969;DHT22;16076;51.194;6.642;2022-08-11T17:51:14;31.00;38.60
28969;DHT22;16076;51.194;6.642;2022-08-11T17:54:02;31.00;38.80
28969;DHT22;16076;51.194;6.642;2022-08-11T17:56:49;31.00;39.00
28969;DHT22;16076;51.194;6.642;2022-08-11T17:59:35;31.00;38.70
28969;DHT22;16076;51.194;6.642;2022-08-11T18:02:40;30.90;38.40
28969;DHT22;16076;51.194;6.642;2022-08-11T18:05:29;30.90;38.60
28969;DHT22;16076;51.194;6.642;2022-08-11T18:07:56;30.80;38.80
28969;DHT22;16076;51.194;6.642;2022-08-11T18:10:45;30.80;39.00
28969;DHT22;16076;51.194;6.642;2022-08-11T18:13:35;30.90;38.80
28969;DHT22;16076;51.194;6.642;2022-08-11T18:16:20;30.90;38.90
28969;DHT22;16076;51.194;6.642;2022-08-11T18:19:06;30.80;38.80
28969;DHT22;16076;51.194;6.642;2022-08-11T18:21:54;30.70;38.80
28969;DHT22;16076;51.194;6.642;2022-08-11T18:24:49;30.60;39.30
28969;DHT22;16076;51.194;6.642;2022-08-11T18:27:37;30.50;39.10
28969;DHT22;16076;51.194;6.642;2022-08-11T18:30:24;30.40;39.50
28969;DHT22;16076;51.194;6.642;2022-08-11T18:33:10;30.20;39.40
28969;DHT22;16076;51.194;6.642;2022-08-11T18:35:58;30.00;39.70
28969;DHT22;16076;51.194;6.642;2022-08-11T18:38:45;29.80;40.30
28969;DHT22;16076;51.194;6.642;2022-08-11T18:41:35;29.70;40.20
28969;DHT22;16076;51.194;6.642;2022-08-11T18:44:23;29.60;40.40
28969;DHT22;16076;51.194;6.642;2022-08-11T18:47:10;29.50;40.70
28969;DHT22;16076;51.194;6.642;2022-08-11T18:49:57;29.40;40.90
28969;DHT22;16076;51.194;6.642;2022-08-11T18:52:44;29.20;41.00
28969;DHT22;16076;51.194;6.642;2022-08-11T18:55:35;29.10;42.20
28969;DHT22;16076;51.194;6.642;2022-08-11T18:58:24;28.90;42.50
28969;DHT22;16076;51.194;6.642;2022-08-11T19:01:12;28.80;42.50
28969;DHT22;16076;51.194;6.642;2022-08-11T19:03:57;28.70;43.10
28969;DHT22;16076;51.194;6.642;2022-08-11T19:06:45;28.50;42.70
28969;DHT22;16076;51.194;6.642;2022-08-11T19:09:31;28.40;43.00
28969;DHT22;16076;51.194;6.642;2022-08-11T19:12:19;28.30;43.10
28969;DHT22;16076;51.194;6.642;2022-08-11T19:15:05;28.20;43.20
28969;DHT22;16076;51.194;6.642;2022-08-11T19:17:51;28.00;43.80
28969;DHT22;16076;51.194;6.642;2022-08-11T19:20:41;27.90;44.00
28969;DHT22;16076;51.194;6.642;2022-08-11T19:23:32;27.90;44.10
28969;DHT22;16076;51.194;6.642;2022-08-11T19:26:20;27.80;44.90
28969;DHT22;16076;51.194;6.642;2022-08-11T19:29:07;27.70;44.50
28969;DHT22;16076;51.194;6.642;2022-08-11T19:31:56;27.60;44.50
28969;DHT22;16076;51.194;6.642;2022-08-11T19:34:41;27.60;45.00
28969;DHT22;16076;51.194;6.642;2022-08-11T19:37:26;27.50;45.00
28969;DHT22;16076;51.194;6.642;2022-08-11T19:40:15;27.40;45.20
28969;DHT22;16076;51.194;6.642;2022-08-11T19:43:00;27.40;45.50
28969;DHT22;16076;51.194;6.642;2022-08-11T19:45:45;27.30;45.80
28969;DHT22;16076;51.194;6.642;2022-08-11T19:48:31;27.20;45.80
28969;DHT22;16076;51.194;6.642;2022-08-11T19:51:17;27.10;45.90
28969;DHT22;16076;51.194;6.642;2022-08-11T19:54:03;27.00;46.10
28969;DHT22;16076;51.194;6.642;2022-08-11T19:56:49;26.90;46.40
28969;DHT22;16076;51.194;6.642;2022-08-11T19:59:34;26.80;46.70
28969;DHT22;16076;51.194;6.642;2022-08-11T20:02:19;26.80;46.90
28969;DHT22;16076;51.194;6.642;2022-08-11T20:05:05;26.70;47.20
28969;DHT22;16076;51.194;6.642;2022-08-11T20:07:51;26.60;47.20
28969;DHT22;16076;51.194;6.642;2022-08-11T20:10:37;26.60;47.90
28969;DHT22;16076;51.194;6.642;2022-08-11T20:13:25;26.50;47.60
28969;DHT22;16076;51.194;6.642;2022-08-11T20:16:12;26.40;47.30
28969;DHT22;16076;51.194;6.642;2022-08-11T20:18:59;26.40;47.90
28969;DHT22;16076;51.194;6.642;2022-08-11T20:21:47;26.30;47.90